Time;durP1;ratioP1;P1;durP2;ratioP2;P2;SDS_P1;SDS_P2;PMS_P1;PMS_P2;Temp;Humidity;BMP_temperature;BMP_pressure;BME280_temperature;BME280_humidity;BME280_pressure;Samples;Min_cycle;Max_cycle;Signal;HPM_P1;HPM_P2
2023/08/17 00:02:12;;;;;;;6.38;2.15;;;;;;;-146.27;82.44;81554.63;5027879;28;20091;-72
2023/08/17 00:04:38;;;;;;;8.43;2.40;;;;;;;-146.27;82.68;81596.81;5026574;28;20041;-73
2023/08/17 00:07:04;;;;;;;7.90;3.60;;;;;;;-146.27;82.30;81540.56;5029153;28;20106;-73
2023/08/17 00:09:29;;;;;;;4.47;1.92;;;;;;;-146.27;82.45;81598.81;5022088;28;20018;-74
2023/08/17 00:11:54;;;;;;;5.05;2.17;;;;;;;-146.27;82.96;81586.78;5020597;28;20033;-73
2023/08/17 00:14:20;;;;;;;4.80;2.15;;;;;;;-146.27;82.62;81570.69;5024147;28;20037;-73
2023/08/17 00:16:46;;;;;;;8.70;2.08;;;;;;;-146.27;82.16;81588.78;5026187;28;20569;-75
2023/08/17 00:19:12;;;;;;;8.52;2.38;;;;;;;-146.27;82.03;81536.56;5025422;28;20021;-75
2023/08/17 00:21:37;;;;;;;6.18;2.08;;;;;;;-146.27;82.25;81568.69;5021929;28;20477;-75
2023/08/17 00:24:03;;;;;;;6.28;2.25;;;;;;;-146.27;82.46;81578.75;5026436;28;20144;-75
2023/08/17 00:26:29;;;;;;;6.05;2.00;;;;;;;-146.27;82.17;81580.75;5024950;28;20528;-75
2023/08/17 00:28:54;;;;;;;6.57;1.85;;;;;;;-146.27;82.28;81576.72;5024079;28;20116;-74
2023/08/17 00:31:20;;;;;;;5.22;2.05;;;;;;;-146.27;81.67;81576.72;5025854;28;20500;-74
2023/08/17 00:33:45;;;;;;;6.65;2.40;;;;;;;-146.27;82.03;81572.72;5027838;28;20025;-74
2023/08/17 00:36:10;;;;;;;3.70;1.50;;;;;;;-146.27;81.90;81564.69;5030539;28;20036;-75
2023/08/17 00:38:36;;;;;;;3.55;1.55;;;;;;;-146.27;82.34;81624.94;5029292;28;20024;-76
2023/08/17 00:41:01;;;;;;;2.90;1.67;;;;;;;-146.27;82.62;81612.88;5032059;28;20029;-75
2023/08/17 00:43:27;;;;;;;4.68;1.67;;;;;;;-146.27;82.33;81616.91;5035275;28;20036;-75
2023/08/17 00:45:53;;;;;;;5.32;1.95;;;;;;;-146.27;82.91;81626.94;5032999;28;20073;-75
2023/08/17 00:48:18;;;;;;;3.63;1.70;;;;;;;-146.27;82.77;81649.03;5028152;28;20794;-75
2023/08/17 00:50:48;;;;;;;4.95;1.92;;;;;;;-146.27;82.90;81632.97;5031204;28;20028;-75
2023/08/17 00:53:16;;;;;;;6.07;1.70;;;;;;;-146.27;82.86;81651.03;5031825;28;20444;-75
2023/08/17 00:55:41;;;;;;;5.13;2.08;;;;;;;-146.27;82.98;81663.09;5029551;28;20060;-75
2023/08/17 00:58:07;;;;;;;7.25;2.20;;;;;;;-146.27;83.04;81699.25;5033969;28;20496;-74
2023/08/17 01:00:32;;;;;;;4.32;2.00;;;;;;;-146.27;83.51;81757.50;5028507;28;21072;-76
2023/08/17 01:02:58;;;;;;;7.60;2.25;;;;;;;-146.27;83.35;81701.25;5032745;28;20029;-74
2023/08/17 01:05:23;;;;;;;3.22;1.65;;;;;;;-146.27;83.81;81689.19;5032721;28;20444;-75
2023/08/17 01:07:49;;;;;;;6.60;2.20;;;;;;;-146.27;83.46;81697.22;5030326;28;20048;-74
2023/08/17 01:10:16;;;;;;;4.55;1.90;;;;;;;-146.27;83.56;81701.25;5028691;28;20500;-74
2023/08/17 01:13:10;;;;;;;8.55;3.33;;;;;;;-146.27;83.79;81717.31;5031786;28;20029;-75
2023/08/17 01:15:40;;;;;;;7.95;2.40;;;;;;;-146.27;83.22;81689.19;5029904;28;20041;-75
2023/08/17 01:18:23;;;;;;;8.43;2.05;;;;;;;-146.27;83.06;81683.19;5030184;28;20094;-74
2023/08/17 01:20:49;;;;;;;3.42;1.98;;;;;;;-146.27;83.08;81677.16;5033908;28;20423;-75
2023/08/17 01:23:15;;;;;;;8.93;1.80;;;;;;;-146.27;82.85;81701.25;5032973;28;20036;-75
2023/08/17 01:25:40;;;;;;;8.63;2.10;;;;;;;-146.27;83.33;81665.09;5023435;28;20409;-74
2023/08/17 01:28:06;;;;;;;5.68;1.65;;;;;;;-146.27;82.93;81693.22;5032528;28;20459;-75
2023/08/17 01:30:44;;;;;;;5.47;2.08;;;;;;;-146.27;83.33;81711.28;5029639;28;20033;-74
2023/08/17 01:33:12;;;;;;;6.00;1.60;;;;;;;-146.27;83.62;81709.28;5031623;28;20076;-75
2023/08/17 01:35:52;;;;;;;5.05;1.70;;;;;;;-146.27;83.24;81741.41;5031672;28;20026;-75
2023/08/17 01:38:21;;;;;;;4.43;1.70;;;;;;;-146.27;83.57;81753.47;5032937;28;20029;-74
2023/08/17 01:40:49;;;;;;;5.57;1.95;;;;;;;-146.27;83.40;81759.50;5045870;28;20024;-75
2023/08/17 01:43:16;;;;;;;4.95;1.77;;;;;;;-146.27;83.36;81751.47;5031483;28;20029;-75
2023/08/17 01:45:42;;;;;;;3.70;2.15;;;;;;;-146.27;83.59;81769.53;5030585;28;20488;-76
2023/08/17 01:48:07;;;;;;;3.63;1.90;;;;;;;-146.27;83.98;81781.59;5028073;28;20022;-75
2023/08/17 01:50:33;;;;;;;6.05;2.38;;;;;;;-146.27;84.01;81789.63;5029552;28;20032;-75
2023/08/17 01:52:58;;;;;;;6.47;2.10;;;;;;;-146.27;83.81;81761.50;5029841;28;20428;-75
2023/08/17 01:55:24;;;;;;;5.95;2.10;;;;;;;-146.27;83.63;81771.53;5029194;28;20036;-74
2023/08/17 01:57:49;;;;;;;3.60;2.30;;;;;;;-146.27;83.99;81781.59;5026890;28;20108;-74
2023/08/17 02:00:15;;;;;;;5.43;2.20;;;;;;;-146.27;84.20;81781.59;5027565;28;20021;-75
2023/08/17 02:02:41;;;;;;;8.38;2.65;;;;;;;-146.27;84.33;81797.66;5029375;28;20036;-74
2023/08/17 02:05:07;;;;;;;5.10;2.67;;;;;;;-146.27;84.44;81817.75;5028836;28;20489;-75
2023/08/17 02:07:32;;;;;;;5.32;2.08;;;;;;;-146.27;84.04;81819.75;5022513;28;20493;-75
2023/08/17 02:09:57;;;;;;;3.92;2.30;;;;;;;-146.27;84.92;81821.75;5028076;28;20032;-76
2023/08/17 02:12:23;;;;;;;4.63;2.33;;;;;;;-146.27;84.64;81831.81;5029613;28;20032;-74
2023/08/17 02:14:48;;;;;;;4.53;2.42;;;;;;;-146.27;85.07;81851.88;5026504;28;20036;-75
2023/08/17 02:17:16;;;;;;;7.18;2.63;;;;;;;-146.27;84.50;81857.91;5018287;28;20555;-75
2023/08/17 02:19:42;;;;;;;6.80;2.28;;;;;;;-146.27;85.13;81845.88;5029295;28;20033;-75
2023/08/17 02:22:07;;;;;;;6.30;2.60;;;;;;;-146.27;86.61;81857.91;5027814;28;20064;-75
2023/08/17 02:24:33;;;;;;;4.97;2.38;;;;;;;-146.27;85.83;81859.94;5027551;28;20057;-75
2023/08/17 02:26:58;;;;;;;6.50;2.90;;;;;;;-146.27;85.24;81886.03;5030276;28;20053;-76
2023/08/17 02:29:23;;;;;;;6.22;2.78;;;;;;;-146.27;85.60;81869.97;5029607;28;20450;-75
2023/08/17 02:31:49;;;;;;;6.15;2.67;;;;;;;-146.27;85.90;81869.97;5030454;28;20060;-75
2023/08/17 02:34:14;;;;;;;3.22;2.30;;;;;;;-146.27;86.18;81904.13;5029406;28;20025;-75
2023/08/17 02:36:39;;;;;;;6.28;2.60;;;;;;;-146.27;86.21;81934.25;5029631;28;20528;-75
2023/08/17 02:39:05;;;;;;;4.47;2.42;;;;;;;-146.27;86.20;81900.09;5029918;28;20056;-74
2023/08/17 02:41:31;;;;;;;10.52;3.03;;;;;;;-146.27;86.25;81956.34;5027806;28;20547;-74
2023/08/17 02:43:57;;;;;;;6.60;2.63;;;;;;;-146.27;86.37;81890.06;5028003;28;20021;-75
2023/08/17 02:46:22;;;;;;;6.45;2.80;;;;;;;-146.27;86.59;81930.22;5030097;28;20030;-75
2023/08/17 02:48:48;;;;;;;6.78;3.22;;;;;;;-146.27;87.38;81894.06;5025774;28;20044;-75
2023/08/17 02:51:13;;;;;;;5.35;2.63;;;;;;;-146.27;86.92;81918.16;5027841;28;20036;-75
2023/08/17 02:53:39;;;;;;;4.85;2.65;;;;;;;-146.27;87.51;81928.22;5028599;28;20036;-75
2023/08/17 02:56:04;;;;;;;3.78;2.85;;;;;;;-146.27;86.95;81928.22;5028096;28;20396;-74
2023/08/17 02:58:30;;;;;;;8.32;3.42;;;;;;;-146.27;87.16;81918.16;5022762;28;20044;-74
2023/08/17 03:00:55;;;;;;;4.90;2.58;;;;;;;-146.27;87.53;81926.22;5024229;28;20021;-74
2023/08/17 03:03:20;;;;;;;8.00;2.88;;;;;;;-146.27;87.43;81930.22;5018880;28;20505;-73
2023/08/17 03:05:46;;;;;;;10.38;2.70;;;;;;;-146.27;87.17;81922.19;5024900;28;20108;-75
2023/08/17 03:08:11;;;;;;;4.97;2.58;;;;;;;-146.27;86.83;81918.16;5016809;28;20077;-75
2023/08/17 03:10:37;;;;;;;5.85;2.83;;;;;;;-146.27;86.97;81918.16;5024019;28;20095;-75
2023/08/17 03:13:03;;;;;;;4.57;2.55;;;;;;;-146.27;86.58;81920.19;5029863;28;20397;-74
2023/08/17 03:15:28;;;;;;;4.65;2.58;;;;;;;-146.27;86.64;81916.16;5025987;28;20425;-74
2023/08/17 03:17:53;;;;;;;2.72;2.50;;;;;;;-146.27;86.54;81934.25;5029591;28;20305;-75
2023/08/17 03:20:19;;;;;;;8.15;3.08;;;;;;;-146.27;86.97;81956.34;5025759;28;20021;-75
2023/08/17 03:22:44;;;;;;;8.95;2.70;;;;;;;-146.27;87.66;81956.34;5027977;28;20036;-74
2023/08/17 03:25:10;;;;;;;7.18;2.80;;;;;;;-146.27;87.13;81950.31;5024951;28;20033;-75
2023/08/17 03:27:36;;;;;;;8.70;2.90;;;;;;;-146.27;87.28;81946.28;5028803;28;20040;-75
2023/08/17 03:30:01;;;;;;;6.38;3.70;;;;;;;-146.27;87.40;81970.41;5014419;28;20036;-75
2023/08/17 03:32:27;;;;;;;7.43;3.03;;;;;;;-146.27;87.56;81970.41;5028444;28;20121;-73
2023/08/17 03:34:52;;;;;;;7.32;3.05;;;;;;;-146.27;87.39;81994.50;5028473;28;20064;-76
2023/08/17 03:37:17;;;;;;;4.80;3.30;;;;;;;-146.27;87.86;81960.34;5029390;28;20523;-75
2023/08/17 03:39:43;;;;;;;6.47;3.63;;;;;;;-146.27;87.40;81994.50;5027186;28;20048;-75
2023/08/17 03:42:08;;;;;;;10.00;4.05;;;;;;;-146.27;87.33;82006.53;5028893;28;20025;-75
2023/08/17 03:44:33;;;;;;;10.05;3.75;;;;;;;-146.27;87.89;82002.53;5027082;28;20056;-75
2023/08/17 03:46:59;;;;;;;5.47;2.63;;;;;;;-146.27;88.19;81982.44;5023592;28;20500;-75
2023/08/17 03:49:24;;;;;;;4.57;3.47;;;;;;;-146.27;87.56;82018.59;5025561;28;20472;-73
2023/08/17 03:51:49;;;;;;;6.53;2.58;;;;;;;-146.27;87.51;81966.38;5027163;28;20022;-73
2023/08/17 03:54:15;;;;;;;3.90;2.50;;;;;;;-146.27;88.05;81980.44;5028787;28;20029;-74
2023/08/17 03:56:40;;;;;;;7.15;2.80;;;;;;;-146.27;87.96;82002.53;5027193;28;20033;-72
2023/08/17 03:59:06;;;;;;;6.47;3.38;;;;;;;-146.27;88.13;82010.56;5026946;28;20102;-72
2023/08/17 04:01:31;;;;;;;6.38;2.70;;;;;;;-146.27;88.16;81994.50;5022705;28;20072;-74
2023/08/17 04:03:56;;;;;;;9.77;2.97;;;;;;;-146.27;87.89;82010.56;5029342;28;20136;-74
2023/08/17 04:06:22;;;;;;;12.32;3.28;;;;;;;-146.27;88.44;82020.59;5028569;28;20053;-74
2023/08/17 04:08:47;;;;;;;4.57;2.08;;;;;;;-146.27;88.49;81994.50;5025329;28;20036;-73
2023/08/17 04:11:13;;;;;;;5.22;2.42;;;;;;;-146.27;88.61;82014.59;5026350;28;20037;-72
2023/08/17 04:13:38;;;;;;;3.80;2.17;;;;;;;-146.27;88.49;82006.53;5029180;28;20026;-74
2023/08/17 04:16:03;;;;;;;4.10;1.95;;;;;;;-146.27;88.48;82008.56;5042441;28;20175;-72
2023/08/17 04:18:29;;;;;;;3.80;2.53;;;;;;;-146.27;88.82;82026.63;5027249;28;20041;-72
2023/08/17 04:20:54;;;;;;;8.82;2.33;;;;;;;-146.27;88.77;82032.66;5027150;28;20030;-72
2023/08/17 04:23:20;;;;;;;10.60;2.50;;;;;;;-146.27;88.89;82046.72;5027640;28;20535;-73
2023/08/17 04:25:46;;;;;;;6.18;2.22;;;;;;;-146.27;89.26;82054.75;5027402;28;20109;-73
2023/08/17 04:28:12;;;;;;;6.13;2.42;;;;;;;-146.27;89.57;82082.88;5028042;28;20488;-73
2023/08/17 04:30:38;;;;;;;6.85;2.35;;;;;;;-146.27;88.82;82006.53;5025332;28;20036;-73
2023/08/17 04:33:03;;;;;;;5.68;2.83;;;;;;;-146.27;89.05;82020.59;5027006;28;20449;-71
2023/08/17 04:35:29;;;;;;;5.75;2.55;;;;;;;-146.27;89.47;81986.47;5027384;28;20037;-72
2023/08/17 04:37:54;;;;;;;8.43;2.80;;;;;;;-146.27;89.42;82014.59;5028194;28;20504;-72
2023/08/17 04:40:20;;;;;;;7.43;2.17;;;;;;;-146.27;88.92;81982.44;5025060;28;20029;-72
2023/08/17 04:42:45;;;;;;;5.00;2.22;;;;;;;-146.27;88.97;81992.50;5028599;28;20176;-72
2023/08/17 04:45:11;;;;;;;5.22;2.08;;;;;;;-146.27;88.95;81970.41;5026301;28;20045;-72
2023/08/17 04:47:36;;;;;;;5.95;2.10;;;;;;;-146.27;88.83;81984.47;5027399;28;20535;-73
2023/08/17 04:50:02;;;;;;;7.28;1.70;;;;;;;-146.27;89.56;81962.34;5027574;28;20034;-73
2023/08/17 04:52:27;;;;;;;5.80;2.03;;;;;;;-146.27;89.02;81936.25;5024672;28;20032;-73
2023/08/17 04:54:53;;;;;;;7.18;1.83;;;;;;;-146.27;88.50;81992.50;5023336;28;20026;-75
2023/08/17 04:57:18;;;;;;;7.95;1.92;;;;;;;-146.27;89.12;81962.34;5027848;28;20025;-74
2023/08/17 04:59:44;;;;;;;6.45;2.05;;;;;;;-146.27;89.08;81944.28;5026239;28;20100;-75
2023/08/17 05:02:09;;;;;;;9.18;1.95;;;;;;;-146.27;88.49;81948.31;5025776;28;20555;-75
2023/08/17 05:04:35;;;;;;;4.47;2.00;;;;;;;-146.27;88.38;81962.34;5025653;28;20033;-75
2023/08/17 05:07:01;;;;;;;6.88;2.53;;;;;;;-146.27;88.16;81956.34;5024123;28;20093;-74
2023/08/17 05:09:27;;;;;;;9.38;2.40;;;;;;;-146.27;88.03;81958.34;5019768;28;20032;-75
2023/08/17 05:11:52;;;;;;;7.22;2.28;;;;;;;-146.27;87.68;81938.25;5021434;28;20021;-75
2023/08/17 05:14:18;;;;;;;7.05;2.42;;;;;;;-146.27;87.45;81926.22;5022935;28;20025;-75
2023/08/17 05:16:43;;;;;;;6.43;1.98;;;;;;;-146.27;87.52;81914.16;5019525;28;20025;-73
2023/08/17 05:19:09;;;;;;;5.90;2.00;;;;;;;-146.27;87.71;81902.09;5023417;28;20499;-74
2023/08/17 05:21:36;;;;;;;11.48;2.70;;;;;;;-146.27;87.59;81894.06;5027101;28;20413;-74
2023/08/17 05:24:01;;;;;;;6.40;2.45;;;;;;;-146.27;87.88;81912.16;5025009;28;20124;-75
2023/08/17 05:26:27;;;;;;;5.47;2.03;;;;;;;-146.27;87.55;81944.28;5025904;28;20127;-75
2023/08/17 05:28:52;;;;;;;6.28;2.00;;;;;;;-146.27;87.69;81974.41;5028807;28;20485;-74
2023/08/17 05:31:17;;;;;;;4.45;2.03;;;;;;;-146.27;87.80;81946.28;5031232;28;20029;-75
2023/08/17 05:33:43;;;;;;;6.85;2.17;;;;;;;-146.27;88.07;81938.25;5030590;28;20079;-76
2023/08/17 05:36:08;;;;;;;4.70;1.92;;;;;;;-146.27;87.61;81944.28;5030231;28;20026;-76
2023/08/17 05:38:34;;;;;;;5.57;2.13;;;;;;;-146.27;88.05;81938.25;5031736;28;20048;-77
2023/08/17 05:40:59;;;;;;;4.63;2.25;;;;;;;-146.27;87.98;81942.28;5020306;28;20025;-77
2023/08/17 05:43:25;;;;;;;9.00;2.00;;;;;;;-146.27;88.17;81910.13;5023596;28;20021;-70
2023/08/17 05:45:51;;;;;;;4.07;1.80;;;;;;;-146.27;88.16;81898.09;5028216;28;20033;-75
2023/08/17 05:48:20;;;;;;;4.82;2.25;;;;;;;-146.27;87.93;81898.09;5031148;28;20382;-74
2023/08/17 05:50:46;;;;;;;5.00;1.88;;;;;;;-146.27;87.49;81906.13;5028477;28;20354;-76
2023/08/17 05:53:12;;;;;;;10.48;2.55;;;;;;;-146.27;87.77;81894.06;5025133;28;20052;-74
2023/08/17 05:55:37;;;;;;;3.10;2.00;;;;;;;-146.27;87.65;81880.00;5027943;28;20071;-73
2023/08/17 05:58:03;;;;;;;6.82;1.88;;;;;;;-146.27;87.50;81892.06;5024023;28;20029;-74
2023/08/17 06:00:29;;;;;;;10.73;2.15;;;;;;;-146.27;87.51;81851.88;5029392;28;20029;-74
2023/08/17 06:03:00;;;;;;;6.50;2.45;;;;;;;-146.27;87.38;81857.91;5029982;28;20025;-74
2023/08/17 06:05:27;;;;;;;6.78;2.67;;;;;;;-146.27;87.63;81833.81;5029655;28;20033;-74
2023/08/17 06:07:52;;;;;;;7.18;2.22;;;;;;;-146.27;86.54;81817.75;5026010;28;20042;-74
2023/08/17 06:10:18;;;;;;;6.43;2.40;;;;;;;-146.27;86.48;81823.78;5029048;28;21487;-73
2023/08/17 06:12:43;;;;;;;8.35;2.80;;;;;;;-146.27;86.51;81785.59;5028075;28;20029;-71
2023/08/17 06:15:09;;;;;;;5.40;2.53;;;;;;;-146.27;86.20;81797.66;5027228;28;20116;-71
2023/08/17 06:17:34;;;;;;;5.25;2.10;;;;;;;-146.27;86.42;81777.56;5026547;28;20021;-72
2023/08/17 06:20:00;;;;;;;9.10;2.30;;;;;;;-146.27;86.60;81799.66;5027978;28;20481;-72
2023/08/17 06:22:25;;;;;;;5.32;2.10;;;;;;;-146.27;86.37;81737.41;5031009;28;20064;-71
2023/08/17 06:24:50;;;;;;;8.80;2.60;;;;;;;-146.27;86.38;81771.53;5026679;28;20551;-74
2023/08/17 06:27:16;;;;;;;6.47;2.53;;;;;;;-146.27;86.64;81751.47;5028060;28;20038;-72
2023/08/17 06:29:41;;;;;;;7.35;2.60;;;;;;;-146.27;86.57;81765.53;5029661;28;20025;-72
2023/08/17 06:32:08;;;;;;;8.80;3.00;;;;;;;-146.27;86.32;81755.47;5028644;28;20022;-72
2023/08/17 06:34:33;;;;;;;8.38;2.85;;;;;;;-146.27;86.29;81777.56;5028256;28;20034;-74
2023/08/17 06:37:03;;;;;;;6.38;2.88;;;;;;;-146.27;86.37;81789.63;5031562;28;20028;-74
2023/08/17 06:39:28;;;;;;;6.22;2.08;;;;;;;-146.27;85.94;81757.50;5022071;28;20033;-72
2023/08/17 06:41:54;;;;;;;5.22;1.83;;;;;;;-146.27;86.11;81787.63;5031095;28;20029;-72
2023/08/17 06:44:20;;;;;;;3.72;1.77;;;;;;;-146.27;86.03;81733.38;5029714;28;20029;-72
2023/08/17 06:46:46;;;;;;;4.68;2.05;;;;;;;-146.27;85.42;81767.53;5029423;28;20046;-72
2023/08/17 06:49:12;;;;;;;6.65;2.53;;;;;;;-146.27;85.34;81723.34;5027540;28;20033;-72
2023/08/17 06:51:38;;;;;;;7.32;2.60;;;;;;;-146.27;85.84;81735.41;5030472;28;20032;-72
2023/08/17 06:54:04;;;;;;;7.57;2.47;;;;;;;-146.27;85.70;81733.38;5028496;28;20037;-73
2023/08/17 06:56:30;;;;;;;6.30;2.53;;;;;;;-146.27;85.56;81749.47;5030125;28;20029;-73
2023/08/17 06:58:55;;;;;;;7.65;2.92;;;;;;;-146.27;86.48;81721.34;5030814;28;20035;-71
2023/08/17 07:01:21;;;;;;;6.38;2.67;;;;;;;-146.27;86.83;81661.09;5029361;28;20477;-72
2023/08/17 07:03:47;;;;;;;8.02;2.60;;;;;;;-146.27;86.69;81697.22;5029418;28;20482;-71
2023/08/17 07:06:13;;;;;;;10.02;3.00;;;;;;;-146.27;85.85;81661.09;5027139;28;20029;-73
2023/08/17 07:08:38;;;;;;;8.20;2.58;;;;;;;-146.27;86.01;81639.00;4999498;28;20386;-75
2023/08/17 07:11:05;;;;;;;7.30;2.58;;;;;;;-146.27;85.68;81624.94;5024993;28;20033;-74
2023/08/17 07:13:31;;;;;;;5.88;3.20;;;;;;;-146.27;85.05;81634.97;5022695;28;20038;-75
2023/08/17 07:15:56;;;;;;;8.27;2.97;;;;;;;-146.27;85.84;81616.91;5016373;28;20091;-76
2023/08/17 07:18:21;;;;;;;11.25;2.83;;;;;;;-146.27;85.15;81622.91;5022777;28;20121;-72
2023/08/17 07:20:47;;;;;;;8.45;3.20;;;;;;;-146.27;84.53;81612.88;5022106;28;20026;-72
2023/08/17 07:23:12;;;;;;;4.38;2.70;;;;;;;-146.27;84.80;81558.66;5026850;28;20055;-72
2023/08/17 07:25:38;;;;;;;6.95;2.85;;;;;;;-146.27;84.61;81526.53;5023875;28;20125;-71
2023/08/17 07:28:04;;;;;;;5.35;2.47;;;;;;;-146.27;84.30;81472.28;5029799;28;20108;-70
2023/08/17 07:30:29;;;;;;;6.75;2.20;;;;;;;-146.27;83.49;81470.28;5030446;28;20029;-72
2023/08/17 07:32:55;;;;;;;12.50;3.10;;;;;;;-146.27;83.13;81353.81;5029502;28;20495;-73
2023/08/17 07:35:20;;;;;;;9.00;2.70;;;;;;;-146.27;83.38;81428.09;5028683;28;20025;-73
2023/08/17 07:37:45;;;;;;;7.53;2.05;;;;;;;-146.27;82.27;81402.00;5030920;28;20029;-75
2023/08/17 07:40:11;;;;;;;4.57;1.50;;;;;;;-146.27;82.24;81424.09;5028789;28;20909;-74
2023/08/17 07:42:37;;;;;;;3.22;1.50;;;;;;;-146.27;82.14;81371.88;5028699;28;20029;-72
2023/08/17 07:45:05;;;;;;;6.20;1.67;;;;;;;-146.27;81.65;81355.81;5028593;28;20033;-73
2023/08/17 07:47:31;;;;;;;4.60;1.48;;;;;;;-146.27;80.65;81311.63;5027604;28;20029;-71
2023/08/17 07:49:57;;;;;;;6.72;1.70;;;;;;;-146.27;80.79;81383.94;5025564;28;20026;-73
2023/08/17 07:52:23;;;;;;;4.53;1.48;;;;;;;-146.27;81.16;81440.16;5026998;28;20393;-72
2023/08/17 07:54:48;;;;;;;7.72;2.30;;;;;;;-146.27;80.64;81355.81;5022930;28;20022;-74
2023/08/17 07:57:14;;;;;;;6.35;1.92;;;;;;;-146.27;80.11;81404.00;5036676;28;20183;-73
2023/08/17 07:59:39;;;;;;;4.63;1.73;;;;;;;-146.27;80.53;81357.81;5023189;28;20018;-72
2023/08/17 08:02:04;;;;;;;6.95;1.77;;;;;;;-146.27;79.81;81347.78;5025439;28;20021;-73
2023/08/17 08:04:30;;;;;;;3.53;2.10;;;;;;;-146.27;79.31;81361.84;5027216;28;20307;-71
2023/08/17 08:06:55;;;;;;;8.57;1.40;;;;;;;-146.27;79.54;81267.44;5027382;28;20120;-75
2023/08/17 08:09:21;;;;;;;4.85;1.60;;;;;;;-146.27;79.39;81299.59;5027087;28;20033;-73
2023/08/17 08:11:46;;;;;;;4.15;1.45;;;;;;;-146.27;79.41;81275.47;5027727;28;20389;-75
2023/08/17 08:14:14;;;;;;;8.88;1.50;;;;;;;-146.27;78.75;81269.47;5027519;28;20029;-73
2023/08/17 08:16:40;;;;;;;4.40;1.23;;;;;;;-146.27;78.54;81287.53;5021912;28;20108;-73
2023/08/17 08:19:05;;;;;;;7.03;1.67;;;;;;;-146.27;79.23;81335.72;5026612;28;20605;-73
2023/08/17 08:21:31;;;;;;;6.88;1.38;;;;;;;-146.27;79.86;81299.59;5028109;28;20071;-74
2023/08/17 08:23:56;;;;;;;4.60;1.42;;;;;;;-146.27;80.66;81327.69;5028911;28;20035;-73
2023/08/17 08:26:22;;;;;;;5.43;1.60;;;;;;;-146.27;80.51;81223.25;5028909;28;20041;-76
2023/08/17 08:28:47;;;;;;;5.00;1.85;;;;;;;-146.27;80.27;81223.25;5028669;28;20021;-76
2023/08/17 08:31:12;;;;;;;7.95;2.50;;;;;;;-146.27;79.80;81152.97;5028320;28;20029;-75
2023/08/17 08:33:38;;;;;;;5.53;2.00;;;;;;;-146.27;79.29;81128.88;5028194;28;20029;-75
2023/08/17 08:36:05;;;;;;;6.65;1.73;;;;;;;-146.27;79.09;81134.91;5029806;28;20022;-75
2023/08/17 08:38:31;;;;;;;7.03;1.65;;;;;;;-146.27;78.24;81140.94;5026714;28;20090;-76
2023/08/17 08:40:57;;;;;;;2.63;1.27;;;;;;;-146.27;77.84;81104.78;5026440;28;20104;-75
2023/08/17 08:43:23;;;;;;;6.13;1.45;;;;;;;-146.27;78.10;81094.75;5022851;28;20511;-75
2023/08/17 08:45:49;;;;;;;4.00;2.20;;;;;;;-146.27;77.49;81175.06;5025257;28;20393;-75
2023/08/17 08:48:18;;;;;;;5.50;1.40;;;;;;;-146.27;77.99;81118.84;5014654;28;20030;-76
2023/08/17 08:50:45;;;;;;;5.63;1.77;;;;;;;-146.27;78.18;81082.69;5012878;28;20079;-76
2023/08/17 08:53:17;;;;;;;5.15;1.60;;;;;;;-146.27;77.49;81078.69;5027114;28;20459;-75
2023/08/17 08:55:54;;;;;;;5.13;1.58;;;;;;;-146.27;77.56;81138.91;5018777;28;20157;-75
2023/08/17 08:58:21;;;;;;;5.00;1.40;;;;;;;-146.27;77.72;81030.47;5029488;28;20361;-75
2023/08/17 09:00:47;;;;;;;7.28;1.80;;;;;;;-146.27;78.00;81016.44;5032291;28;20338;-75
2023/08/17 09:03:16;;;;;;;7.95;1.88;;;;;;;-146.27;78.19;80954.19;5032074;28;20401;-75
2023/08/17 09:05:44;;;;;;;4.45;1.63;;;;;;;-146.27;77.06;80974.25;5019932;28;20030;-74
2023/08/17 09:08:12;;;;;;;3.80;1.42;;;;;;;-146.27;77.82;80869.84;5028683;28;20049;-76
2023/08/17 09:10:38;;;;;;;8.07;1.60;;;;;;;-146.27;77.78;80829.69;5027803;28;20022;-75
2023/08/17 09:13:03;;;;;;;5.28;2.20;;;;;;;-146.27;76.95;80793.53;5030810;28;20025;-77
2023/08/17 09:15:29;;;;;;;5.32;1.35;;;;;;;-146.27;76.48;80837.72;5026910;28;20413;-75
2023/08/17 09:17:54;;;;;;;1.90;1.10;;;;;;;-146.27;76.09;80805.56;5029518;28;20017;-75
2023/08/17 09:20:39;;;;;;;11.75;1.83;;;;;;;-146.27;75.82;80801.56;5030897;28;20026;-75
2023/08/17 09:23:10;;;;;;;9.65;1.50;;;;;;;-146.27;75.44;80867.81;5027603;28;20026;-74
2023/08/17 09:25:38;;;;;;;2.20;1.40;;;;;;;-146.27;74.63;80859.78;5014061;28;20026;-75
2023/08/17 09:28:12;;;;;;;7.07;1.73;;;;;;;-146.27;76.06;80857.78;5029515;28;20033;-75
2023/08/17 09:30:59;;;;;;;3.63;1.67;;;;;;;-146.27;75.37;80767.44;5032214;28;20030;-75
2023/08/17 09:33:30;;;;;;;6.07;1.30;;;;;;;-146.27;73.29;80757.38;5025498;28;20028;-76
2023/08/17 09:35:57;;;;;;;4.95;1.40;;;;;;;-146.27;72.74;80785.50;5032447;28;20384;-73
2023/08/17 09:38:22;;;;;;;6.68;1.48;;;;;;;-146.27;73.88;80721.25;5027178;28;20499;-74
2023/08/17 09:40:48;;;;;;;3.92;1.52;;;;;;;-146.27;72.85;80689.13;5028656;28;20029;-74
2023/08/17 09:43:15;;;;;;;7.38;1.85;;;;;;;-146.27;72.48;80663.00;5029048;28;20448;-74
2023/08/17 09:45:44;;;;;;;8.73;1.60;;;;;;;-146.27;73.82;80574.66;5030791;28;20030;-72
2023/08/17 09:48:10;;;;;;;5.63;2.05;;;;;;;-146.27;72.43;80492.34;5031323;28;20036;-73
2023/08/17 09:50:35;;;;;;;3.45;1.75;;;;;;;-146.27;70.84;80500.38;5032532;28;20480;-73
2023/08/17 09:53:05;;;;;;;4.80;1.80;;;;;;;-146.27;71.30;80546.56;5027516;28;20040;-73
2023/08/17 09:55:34;;;;;;;4.25;1.55;;;;;;;-146.27;70.42;80530.50;5025253;28;20037;-72
2023/08/17 09:58:00;;;;;;;8.10;2.45;;;;;;;-146.27;72.41;80468.25;5022531;28;20026;-73
2023/08/17 10:00:27;;;;;;;5.70;2.00;;;;;;;-146.27;72.76;80426.09;5031178;28;20022;-74
2023/08/17 10:02:53;;;;;;;14.68;2.47;;;;;;;-146.27;71.71;80367.84;5027978;28;20021;-75
2023/08/17 10:05:20;;;;;;;10.18;2.90;;;;;;;-146.27;72.02;80331.72;5030508;28;20076;-75
2023/08/17 10:07:53;;;;;;;8.20;2.30;;;;;;;-146.27;70.82;80241.38;5027505;28;20083;-74
2023/08/17 10:10:24;;;;;;;9.13;1.85;;;;;;;-146.27;71.19;80213.25;5021358;28;20060;-74
2023/08/17 10:13:23;;;;;;;5.35;1.90;;;;;;;-146.27;69.91;80211.25;5022620;28;20037;-73
2023/08/17 10:16:08;;;;;;;6.55;2.55;;;;;;;-146.27;68.40;80343.75;5022312;28;20710;-73
2023/08/17 10:18:52;;;;;;;6.78;2.13;;;;;;;-146.27;69.63;80371.88;5027487;28;20086;-74
2023/08/17 10:21:39;;;;;;;3.95;1.85;;;;;;;-146.27;70.06;80321.69;5026991;28;20119;-72
2023/08/17 10:24:07;;;;;;;6.93;1.80;;;;;;;-146.27;69.67;80359.81;5022640;28;20030;-73
2023/08/17 10:26:33;;;;;;;8.52;2.13;;;;;;;-146.27;70.46;80365.84;5028192;28;20116;-74
2023/08/17 10:29:01;;;;;;;10.40;2.40;;;;;;;-146.27;69.13;80303.59;5031769;28;20559;-73
2023/08/17 10:31:27;;;;;;;4.40;2.20;;;;;;;-146.27;68.76;80283.53;5030212;28;20556;-74
2023/08/17 10:33:53;;;;;;;6.00;2.10;;;;;;;-146.27;68.59;80315.66;5015824;28;20022;-73
2023/08/17 10:36:20;;;;;;;7.07;2.30;;;;;;;-146.27;71.74;80456.19;5025905;28;20029;-74
2023/08/17 10:38:45;;;;;;;4.45;2.00;;;;;;;-146.27;69.90;80438.13;5029243;28;20031;-74
2023/08/17 10:41:14;;;;;;;5.90;2.10;;;;;;;-146.27;70.67;80500.38;5030971;28;20112;-75
2023/08/17 10:43:59;;;;;;;5.57;2.80;;;;;;;-146.27;71.10;80480.28;5029864;28;20508;-75
2023/08/17 10:46:36;;;;;;;5.85;2.28;;;;;;;-146.27;71.29;80363.84;5028408;28;20112;-75
2023/08/17 10:49:08;;;;;;;5.75;2.00;;;;;;;-146.27;70.73;80327.69;5030612;28;20060;-74
2023/08/17 10:51:34;;;;;;;7.43;2.28;;;;;;;-146.27;71.58;80331.72;5028087;28;20022;-74
2023/08/17 10:54:03;;;;;;;5.70;2.50;;;;;;;-146.27;70.00;80347.78;5028052;28;20112;-73
2023/08/17 10:56:29;;;;;;;5.00;2.35;;;;;;;-146.27;71.96;80305.63;5026237;28;20358;-74
2023/08/17 10:58:59;;;;;;;6.60;2.20;;;;;;;-146.27;70.35;80195.19;5028574;28;20056;-74
2023/08/17 11:01:33;;;;;;;8.38;3.00;;;;;;;-146.27;70.12;80149.00;5031065;28;20032;-74
2023/08/17 11:04:15;;;;;;;5.43;2.15;;;;;;;-146.27;70.56;80082.75;5028996;28;20025;-74
2023/08/17 11:06:42;;;;;;;8.87;3.00;;;;;;;-146.27;69.79;80010.47;5029182;28;20056;-75
2023/08/17 11:09:08;;;;;;;9.50;2.45;;;;;;;-146.27;68.44;79906.09;5023389;28;20026;-74
2023/08/17 11:11:34;;;;;;;7.18;2.15;;;;;;;-146.27;67.55;79910.09;5027431;28;20030;-73
2023/08/17 11:13:59;;;;;;;4.47;2.00;;;;;;;-146.27;67.91;79761.53;5030891;28;20032;-74
2023/08/17 11:16:25;;;;;;;8.13;2.47;;;;;;;-146.27;66.47;79745.50;5026584;28;20033;-74